createdAt,value
2019-05-17T00:02:02.286Z,97251.33
2019-05-17T00:04:31.683Z,97247.64
2019-05-17T00:07:06.311Z,97242.05
2019-05-17T00:09:37.265Z,97244.66
2019-05-17T00:12:07.643Z,97243.67
2019-05-17T00:14:39.505Z,97240.63
2019-05-17T00:17:09.229Z,97236.20
2019-05-17T00:19:40.034Z,97231.57
2019-05-17T00:22:09.442Z,97227.56
2019-05-17T00:24:40.001Z,97223.27
2019-05-17T00:27:10.616Z,97226.61
2019-05-17T00:29:41.072Z,97215.94
2019-05-17T00:32:11.635Z,97210.97
2019-05-17T00:34:42.254Z,97207.87
2019-05-17T00:37:17.180Z,97202.26
2019-05-17T00:39:47.174Z,97198.83
2019-05-17T00:42:19.106Z,97201.14
2019-05-17T00:44:49.410Z,97196.27
2019-05-17T00:47:19.918Z,97192.12
2019-05-17T00:49:51.178Z,97183.47
2019-05-17T00:52:20.577Z,97191.22
2019-05-17T00:54:52.268Z,97183.34
2019-05-17T00:57:27.341Z,97189.50
2019-05-17T00:59:57.668Z,97186.13
2019-05-17T01:02:28.094Z,97188.11
2019-05-17T01:04:58.605Z,97179.26
2019-05-17T01:07:29.117Z,97179.48
2019-05-17T01:09:59.520Z,97174.27
2019-05-17T01:12:28.926Z,97180.23
2019-05-17T01:14:58.568Z,97178.02
2019-05-17T01:17:29.132Z,97175.03
2019-05-17T01:19:59.680Z,97176.12
2019-05-17T01:22:31.375Z,97177.50
2019-05-17T01:25:02.482Z,97179.93
2019-05-17T01:27:32.701Z,97177.98
2019-05-17T01:30:02.249Z,97182.00
2019-05-17T01:32:32.961Z,97180.62
2019-05-17T01:35:02.342Z,97177.02
2019-05-17T01:37:33.062Z,97171.50
2019-05-17T01:40:01.880Z,97168.67
2019-05-17T01:42:31.283Z,97167.78
2019-05-17T01:45:01.810Z,97168.50
2019-05-17T01:47:32.381Z,97167.31
2019-05-17T01:50:03.092Z,97168.78
2019-05-17T01:52:33.714Z,97166.92
2019-05-17T01:55:06.455Z,97167.94
2019-05-17T01:57:36.990Z,97163.12
2019-05-17T02:00:13.585Z,97167.95
2019-05-17T02:02:44.093Z,97167.51
2019-05-17T02:05:17.263Z,97160.00
2019-05-17T02:07:48.154Z,97159.16
2019-05-17T02:10:17.875Z,97158.48
2019-05-17T02:12:49.082Z,97162.62
2019-05-17T02:15:20.242Z,97154.58
2019-05-17T02:17:50.810Z,97160.48
2019-05-17T02:20:20.425Z,97159.47
2019-05-17T02:22:52.222Z,97156.50
2019-05-17T02:25:23.310Z,97157.10
2019-05-17T02:27:53.915Z,97152.18
2019-05-17T02:30:24.938Z,97148.88
2019-05-17T02:32:54.809Z,97153.27
2019-05-17T02:35:23.542Z,97147.34
2019-05-17T02:37:54.059Z,97146.29
2019-05-17T02:40:23.455Z,97140.53
2019-05-17T02:42:53.697Z,97141.13
2019-05-17T02:45:25.484Z,97140.92
2019-05-17T02:47:55.277Z,97139.39
2019-05-17T02:50:26.116Z,97141.55
2019-05-17T02:52:56.694Z,97133.80
2019-05-17T02:55:27.100Z,97131.77
2019-05-17T02:57:57.492Z,97133.70
2019-05-17T03:00:28.539Z,97135.28
2019-05-17T03:03:03.016Z,97130.78
2019-05-17T03:05:33.958Z,97131.05
2019-05-17T03:08:04.789Z,97133.45
2019-05-17T03:10:35.425Z,97137.92
2019-05-17T03:13:04.990Z,97127.80
2019-05-17T03:15:36.218Z,97135.37
2019-05-17T03:18:05.824Z,97134.52
2019-05-17T03:20:35.238Z,97133.83
2019-05-17T03:23:05.637Z,97141.14
2019-05-17T03:25:35.214Z,97134.28
2019-05-17T03:28:04.243Z,97129.99
2019-05-17T03:30:37.565Z,97127.71
2019-05-17T03:33:08.641Z,97123.59
2019-05-17T03:35:38.920Z,97122.67
2019-05-17T03:38:08.632Z,97117.17
2019-05-17T03:41:03.483Z,97119.22
2019-05-17T03:43:13.542Z,97120.03
2019-05-17T03:45:42.613Z,97119.81
2019-05-17T03:48:14.500Z,97125.87
2019-05-17T03:50:47.094Z,97131.57
2019-05-17T03:53:18.033Z,97130.86
2019-05-17T03:55:48.535Z,97132.08
2019-05-17T03:58:23.549Z,97132.26
2019-05-17T04:00:54.267Z,97126.84
2019-05-17T04:03:24.760Z,97131.92
2019-05-17T04:05:56.628Z,97127.80
2019-05-17T04:08:26.109Z,97127.44
2019-05-17T04:10:55.601Z,97135.50
2019-05-17T04:13:25.977Z,97131.38
2019-05-17T04:15:57.694Z,97135.59
2019-05-17T04:18:28.342Z,97136.78
2019-05-17T04:20:59.271Z,97136.11
2019-05-17T04:23:33.938Z,97138.86
2019-05-17T04:26:04.488Z,97140.57
2019-05-17T04:28:35.292Z,97138.66
2019-05-17T04:31:05.697Z,97137.45
2019-05-17T04:33:35.751Z,97139.73
2019-05-17T04:36:06.299Z,97134.27
2019-05-17T04:38:36.604Z,97132.70
2019-05-17T04:41:06.136Z,97133.81
2019-05-17T04:43:36.578Z,97130.36
2019-05-17T04:46:07.104Z,97126.52
2019-05-17T04:48:37.934Z,97132.59
2019-05-17T04:51:07.433Z,97123.84
2019-05-17T04:53:38.092Z,97121.22
2019-05-17T04:56:08.602Z,97126.33
2019-05-17T04:58:38.393Z,97124.73
2019-05-17T05:01:07.855Z,97120.77
2019-05-17T05:03:39.299Z,97125.70
2019-05-17T05:06:08.921Z,97121.87
2019-05-17T05:08:37.704Z,97124.91
2019-05-17T05:11:08.470Z,97118.75
2019-05-17T05:13:38.956Z,97117.52
2019-05-17T05:16:09.863Z,97114.34
2019-05-17T05:18:42.093Z,97114.74
2019-05-17T05:21:12.450Z,97114.30
2019-05-17T05:23:42.984Z,97115.56
2019-05-17T05:26:12.789Z,97113.77
2019-05-17T05:28:42.176Z,97111.34
2019-05-17T05:31:13.654Z,97109.69
2019-05-17T05:33:44.383Z,97106.81
2019-05-17T05:36:14.167Z,97104.23
2019-05-17T05:38:44.558Z,97103.31
2019-05-17T05:41:13.921Z,97106.14
2019-05-17T05:43:44.218Z,97098.41
2019-05-17T05:46:14.625Z,97096.19
2019-05-17T05:48:45.344Z,97098.50
2019-05-17T05:51:15.181Z,97092.65
2019-05-17T05:53:45.846Z,97089.39
2019-05-17T05:56:14.324Z,97086.08
2019-05-17T05:58:44.511Z,97080.03
2019-05-17T06:01:13.932Z,97075.06
2019-05-17T06:03:44.301Z,97073.58
2019-05-17T06:06:14.544Z,97066.25
2019-05-17T06:08:44.037Z,97070.60
2019-05-17T06:11:14.500Z,97064.57
2019-05-17T06:13:45.929Z,97066.22
2019-05-17T06:16:17.517Z,97065.02
2019-05-17T06:18:51.718Z,97063.92
2019-05-17T06:21:23.830Z,97059.08
2019-05-17T06:23:53.254Z,97058.23
2019-05-17T06:26:23.986Z,97062.32
2019-05-17T06:28:53.450Z,97060.97
2019-05-17T06:31:24.096Z,97059.67
2019-05-17T06:33:53.592Z,97056.89
2019-05-17T06:36:23.056Z,97061.41
2019-05-17T06:38:55.987Z,97055.80
2019-05-17T06:41:26.318Z,97052.66
2019-05-17T06:43:58.861Z,97053.42
2019-05-17T06:46:32.447Z,97043.09
2019-05-17T06:49:03.087Z,97051.46
2019-05-17T06:51:35.508Z,97050.95
2019-05-17T06:54:05.918Z,97045.18
2019-05-17T06:56:38.513Z,97041.46
2019-05-17T06:59:09.021Z,97036.56
2019-05-17T07:01:41.031Z,97037.39
2019-05-17T07:04:12.174Z,97037.27
2019-05-17T07:06:42.750Z,97029.53
2019-05-17T07:09:12.890Z,97027.50
2019-05-17T07:11:43.409Z,97022.00
2019-05-17T07:14:16.054Z,97029.58
2019-05-17T07:16:46.452Z,97036.81
2019-05-17T07:19:15.830Z,97029.98
2019-05-17T07:21:46.538Z,97030.68
2019-05-17T07:24:15.796Z,97032.15
2019-05-17T07:26:45.327Z,97009.64
2019-05-17T07:29:15.779Z,97019.30
2019-05-17T07:31:49.677Z,97028.84
2019-05-17T07:34:19.971Z,97006.67
2019-05-17T07:36:50.647Z,97011.64
2019-05-17T07:39:21.360Z,97017.08
2019-05-17T07:41:54.793Z,97005.94
2019-05-17T07:44:26.316Z,97017.77
2019-05-17T07:46:56.617Z,97016.81
2019-05-17T07:49:26.376Z,97013.20
2019-05-17T07:51:56.325Z,97003.68
2019-05-17T07:54:27.037Z,96992.70
2019-05-17T07:56:56.439Z,97005.69
2019-05-17T07:59:25.869Z,97015.66
2019-05-17T08:01:57.075Z,97001.38
2019-05-17T08:04:29.850Z,97023.13
2019-05-17T08:06:59.836Z,96999.73
2019-05-17T08:09:30.103Z,96989.08
2019-05-17T08:12:00.929Z,96989.75
2019-05-17T08:14:33.562Z,96985.80
2019-05-17T08:17:05.179Z,96990.34
2019-05-17T08:19:34.546Z,96974.23
2019-05-17T08:22:05.565Z,96973.05
2019-05-17T08:24:36.079Z,96971.12
2019-05-17T08:27:05.652Z,96972.05
2019-05-17T08:29:40.292Z,96962.88
2019-05-17T08:32:10.858Z,96954.42
2019-05-17T08:34:42.152Z,96958.08
2019-05-17T08:37:11.987Z,96971.95
2019-05-17T08:39:40.892Z,96972.76
2019-05-17T08:42:11.632Z,96970.86
2019-05-17T08:44:42.140Z,96958.08
2019-05-17T08:47:11.723Z,96958.77
2019-05-17T08:49:42.067Z,96949.64
2019-05-17T08:52:12.624Z,96963.77
2019-05-17T08:54:43.140Z,96953.81
2019-05-17T08:57:12.604Z,96960.59
2019-05-17T08:59:44.597Z,96950.56
2019-05-17T09:02:14.088Z,96963.22
2019-05-17T09:04:43.609Z,96953.81
2019-05-17T09:07:14.122Z,96953.31
2019-05-17T09:09:44.654Z,96941.23
2019-05-17T09:12:14.035Z,96937.63
2019-05-17T09:14:44.500Z,96944.37
2019-05-17T09:17:15.009Z,96956.26
2019-05-17T09:19:45.624Z,96943.89
2019-05-17T09:22:15.131Z,96945.95
2019-05-17T09:24:45.606Z,96941.78
2019-05-17T09:27:16.747Z,96949.17
2019-05-17T09:29:49.729Z,96956.62
2019-05-17T09:32:20.544Z,96948.94
2019-05-17T09:34:50.101Z,96954.69
2019-05-17T09:37:22.625Z,96935.17
2019-05-17T09:39:52.048Z,96937.92
2019-05-17T09:42:21.372Z,96932.11
2019-05-17T09:44:51.875Z,96925.27
2019-05-17T09:47:23.342Z,96927.98
2019-05-17T09:49:52.787Z,96935.27
2019-05-17T09:52:24.462Z,96924.20
2019-05-17T09:54:55.060Z,96911.66
2019-05-17T09:57:25.545Z,96912.92
2019-05-17T09:59:56.300Z,96911.22
2019-05-17T10:02:28.890Z,96889.69
2019-05-17T10:04:59.785Z,96896.81
2019-05-17T10:07:29.946Z,96914.80
2019-05-17T10:10:01.673Z,96900.59
2019-05-17T10:12:31.032Z,96890.02
2019-05-17T10:15:01.441Z,96900.16
2019-05-17T10:17:32.157Z,96883.30
2019-05-17T10:20:01.666Z,96882.16
2019-05-17T10:22:31.032Z,96902.97
2019-05-17T10:25:01.622Z,96891.28
2019-05-17T10:27:32.119Z,96876.97
2019-05-17T10:30:02.011Z,96873.73
2019-05-17T10:32:31.465Z,96869.50
2019-05-17T10:35:00.871Z,96873.17
2019-05-17T10:37:31.432Z,96868.06
2019-05-17T10:40:03.823Z,96872.45
2019-05-17T10:42:33.306Z,96875.81
2019-05-17T10:45:03.905Z,96872.88
2019-05-17T10:47:33.485Z,96869.95
2019-05-17T10:50:06.606Z,96872.77
2019-05-17T10:52:40.974Z,96863.78
2019-05-17T10:55:10.774Z,96878.72
2019-05-17T10:57:42.425Z,96871.01
2019-05-17T11:00:16.302Z,96862.52
2019-05-17T11:02:45.737Z,96872.61
2019-05-17T11:05:20.120Z,96875.00
2019-05-17T11:07:50.761Z,96868.98
2019-05-17T11:10:21.327Z,96876.06
2019-05-17T11:12:51.734Z,96865.39
2019-05-17T11:15:21.141Z,96868.42
2019-05-17T11:17:50.508Z,96862.25
2019-05-17T11:20:20.445Z,96877.84
2019-05-17T11:22:49.846Z,96862.03
2019-05-17T11:25:19.272Z,96858.23
2019-05-17T11:27:51.125Z,96849.78
2019-05-17T11:30:21.649Z,96864.62
2019-05-17T11:32:52.279Z,96849.59
2019-05-17T11:35:24.686Z,96857.76
2019-05-17T11:37:54.331Z,96855.25
2019-05-17T11:40:25.475Z,96834.62
2019-05-17T11:42:57.668Z,96841.83
2019-05-17T11:45:32.449Z,96838.22
2019-05-17T11:48:01.280Z,96839.56
2019-05-17T11:50:33.670Z,96835.35
2019-05-17T11:53:05.050Z,96829.10
2019-05-17T11:55:34.702Z,96825.48
2019-05-17T11:58:05.205Z,96834.00
2019-05-17T12:00:37.135Z,96834.86
2019-05-17T12:03:07.536Z,96826.20
2019-05-17T12:05:37.971Z,96819.02
2019-05-17T12:08:10.266Z,96815.78
2019-05-17T12:10:39.678Z,96819.44
2019-05-17T12:13:09.134Z,96823.20
2019-05-17T12:15:44.825Z,96823.88
2019-05-17T12:18:10.018Z,96805.80
2019-05-17T12:20:41.782Z,96804.76
2019-05-17T12:23:12.384Z,96817.61
2019-05-17T12:25:43.000Z,96813.64
2019-05-17T12:28:12.475Z,96812.25
2019-05-17T12:30:44.304Z,96805.92
2019-05-17T12:33:16.570Z,96796.66
2019-05-17T12:35:45.919Z,96798.88
2019-05-17T12:38:16.393Z,96795.99
2019-05-17T12:40:47.315Z,96793.97
2019-05-17T12:43:16.823Z,96790.66
2019-05-17T12:46:00.285Z,96787.03
2019-05-17T12:48:20.734Z,96800.95
2019-05-17T12:50:51.364Z,96792.70
2019-05-17T12:53:21.719Z,96787.46
2019-05-17T12:55:53.190Z,96792.36
2019-05-17T12:58:22.761Z,96779.81
2019-05-17T13:00:53.179Z,96773.42
2019-05-17T13:03:23.537Z,96782.70
2019-05-17T13:05:54.305Z,96775.30
2019-05-17T13:08:23.706Z,96775.79
2019-05-17T13:10:53.134Z,96772.65
2019-05-17T13:13:23.641Z,96776.30
2019-05-17T13:15:54.000Z,96774.73
2019-05-17T13:18:23.513Z,96776.18
2019-05-17T13:20:52.795Z,96770.95
2019-05-17T13:23:23.162Z,96768.48
2019-05-17T13:25:53.567Z,96759.73
2019-05-17T13:28:23.078Z,96759.83
2019-05-17T13:30:55.219Z,96751.53
2019-05-17T13:33:24.734Z,96762.28
2019-05-17T13:35:55.084Z,96761.53
2019-05-17T13:38:25.491Z,96756.20
2019-05-17T13:40:56.113Z,96753.42
2019-05-17T13:43:24.559Z,96753.39
2019-05-17T13:45:54.932Z,96748.16
2019-05-17T13:48:25.903Z,96749.03
2019-05-17T13:50:54.680Z,96748.98
2019-05-17T13:53:25.332Z,96741.73
2019-05-17T13:55:55.927Z,96739.52
2019-05-17T13:58:26.506Z,96739.37
2019-05-17T14:00:56.440Z,96738.87
2019-05-17T14:03:29.549Z,96735.52
2019-05-17T14:06:00.178Z,96721.56
2019-05-17T14:08:30.776Z,96729.62
2019-05-17T14:11:02.564Z,96710.65
2019-05-17T14:13:32.183Z,96710.65
2019-05-17T14:16:03.160Z,96731.30
2019-05-17T14:18:32.556Z,96730.73
2019-05-17T14:21:02.743Z,96737.20
2019-05-17T14:23:33.322Z,96729.19
2019-05-17T14:26:02.986Z,96725.97
2019-05-17T14:28:32.659Z,96726.59
2019-05-17T14:31:02.041Z,96726.30
2019-05-17T14:33:32.532Z,96729.21
2019-05-17T14:36:03.252Z,96740.64
2019-05-17T14:38:34.660Z,96729.58
2019-05-17T14:41:07.379Z,96729.59
2019-05-17T14:43:35.625Z,96725.47
2019-05-17T14:46:05.875Z,96727.39
2019-05-17T14:48:35.487Z,96726.41
2019-05-17T14:51:08.511Z,96733.17
2019-05-17T14:53:38.987Z,96737.12
2019-05-17T14:56:09.419Z,96730.70
2019-05-17T14:58:39.931Z,96718.89
2019-05-17T15:01:10.358Z,96724.67
2019-05-17T15:03:39.845Z,96718.63
2019-05-17T15:06:13.763Z,96715.13
2019-05-17T15:08:43.120Z,96710.66
2019-05-17T15:11:14.164Z,96711.27
2019-05-17T15:13:44.875Z,96712.77
2019-05-17T15:16:15.949Z,96704.12
2019-05-17T15:18:46.620Z,96705.15
2019-05-17T15:21:18.074Z,96702.81
2019-05-17T15:23:46.854Z,96704.09
2019-05-17T15:26:15.644Z,96708.31
2019-05-17T15:28:45.951Z,96707.16
2019-05-17T15:31:14.888Z,96697.17
2019-05-17T15:33:43.622Z,96699.96
2019-05-17T15:36:17.791Z,96693.66
2019-05-17T15:38:48.440Z,96683.59
2019-05-17T15:41:19.634Z,96690.16
2019-05-17T15:43:49.129Z,96682.26
2019-05-17T15:46:18.520Z,96681.11
2019-05-17T15:48:50.613Z,96678.70
2019-05-17T15:51:20.965Z,96682.22
2019-05-17T15:53:51.365Z,96674.65
2019-05-17T15:56:21.868Z,96674.65
2019-05-17T15:58:52.841Z,96677.39
2019-05-17T16:01:22.266Z,96679.92
2019-05-17T16:03:51.652Z,96673.52
2019-05-17T16:06:23.283Z,96670.11
2019-05-17T16:08:52.810Z,96667.05
2019-05-17T16:11:22.117Z,96664.38
2019-05-17T16:13:52.514Z,96660.36
2019-05-17T16:16:22.839Z,96658.12
2019-05-17T16:18:52.226Z,96656.83
2019-05-17T16:21:22.799Z,96656.83
2019-05-17T16:23:55.025Z,96662.77
2019-05-17T16:26:25.386Z,96661.63
2019-05-17T16:28:58.022Z,96666.84
2019-05-17T16:31:27.392Z,96662.75
2019-05-17T16:33:57.039Z,96661.26
2019-05-17T16:36:30.968Z,96661.70
2019-05-17T16:39:01.490Z,96658.70
2019-05-17T16:41:31.789Z,96657.07
2019-05-17T16:44:01.302Z,96654.28
2019-05-17T16:46:32.076Z,96659.64
2019-05-17T16:49:01.492Z,96654.36
2019-05-17T16:51:34.410Z,96650.02
2019-05-17T16:54:03.275Z,96654.93
2019-05-17T16:56:33.585Z,96649.32
2019-05-17T16:59:06.810Z,96649.17
2019-05-17T17:01:39.618Z,96641.69
2019-05-17T17:04:08.988Z,96645.05
2019-05-17T17:06:39.884Z,96643.53
2019-05-17T17:09:10.841Z,96647.16
2019-05-17T17:11:41.240Z,96645.20
2019-05-17T17:14:10.659Z,96639.99
2019-05-17T17:16:44.355Z,96637.80
2019-05-17T17:19:14.876Z,96644.14
2019-05-17T17:21:45.373Z,96640.21
2019-05-17T17:24:16.239Z,96641.25
2019-05-17T17:26:49.376Z,96641.68
2019-05-17T17:29:22.226Z,96639.20
2019-05-17T17:31:51.674Z,96640.00
2019-05-17T17:34:23.836Z,96639.64
2019-05-17T17:36:54.009Z,96644.56
2019-05-17T17:39:25.102Z,96645.43
2019-05-17T17:41:56.765Z,96642.34
2019-05-17T17:44:26.059Z,96641.44
2019-05-17T17:46:55.649Z,96641.80
2019-05-17T17:49:28.187Z,96633.19
2019-05-17T17:51:59.735Z,96640.00
2019-05-17T17:54:29.437Z,96635.04
2019-05-17T17:57:00.046Z,96636.96
2019-05-17T17:59:29.544Z,96634.72
2019-05-17T18:01:58.858Z,96638.06
2019-05-17T18:04:27.422Z,96635.78
2019-05-17T18:07:00.086Z,96632.99
2019-05-17T18:09:32.781Z,96637.52
2019-05-17T18:12:04.452Z,96640.22
2019-05-17T18:14:35.272Z,96647.30
2019-05-17T18:17:05.884Z,96644.44
2019-05-17T18:19:39.636Z,96651.14
2019-05-17T18:22:09.127Z,96639.10
2019-05-17T18:24:39.506Z,96649.33
2019-05-17T18:27:11.896Z,96648.78
2019-05-17T18:29:43.076Z,96653.70
2019-05-17T18:32:15.009Z,96654.38
2019-05-17T18:34:44.732Z,96655.70
2019-05-17T18:37:14.402Z,96647.05
2019-05-17T18:39:45.281Z,96656.50
2019-05-17T18:42:16.210Z,96664.22
2019-05-17T18:44:45.626Z,96659.70
2019-05-17T18:47:14.939Z,96657.61
2019-05-17T18:49:45.336Z,96659.64
2019-05-17T18:52:15.742Z,96659.28
2019-05-17T18:54:47.714Z,96659.62
2019-05-17T18:57:18.123Z,96664.22
2019-05-17T18:59:50.093Z,96669.02
2019-05-17T19:02:20.605Z,96669.55
2019-05-17T19:04:52.889Z,96672.41
2019-05-17T19:07:23.609Z,96671.81
2019-05-17T19:09:54.018Z,96674.86
2019-05-17T19:12:24.524Z,96670.73
2019-05-17T19:14:56.511Z,96675.70
2019-05-17T19:17:27.124Z,96674.17
2019-05-17T19:19:56.519Z,96676.77
2019-05-17T19:22:25.030Z,96684.54
2019-05-17T19:24:54.414Z,96685.13
2019-05-17T19:27:24.134Z,96693.49
2019-05-17T19:29:53.436Z,96692.52
2019-05-17T19:32:22.874Z,96692.36
2019-05-17T19:34:54.000Z,96694.55
2019-05-17T19:37:24.611Z,96688.56
2019-05-17T19:39:57.102Z,96689.97
2019-05-17T19:42:27.619Z,96691.40
2019-05-17T19:44:59.476Z,96696.16
2019-05-17T19:47:29.156Z,96697.97
2019-05-17T19:49:58.890Z,96697.00
2019-05-17T19:52:29.982Z,96696.64
2019-05-17T19:54:59.383Z,96694.25
2019-05-17T19:57:29.028Z,96697.44
2019-05-17T19:59:58.546Z,96704.98
2019-05-17T20:02:30.962Z,96703.02
2019-05-17T20:05:00.581Z,96707.38
2019-05-17T20:07:37.645Z,96714.92
2019-05-17T20:10:01.191Z,96713.36
2019-05-17T20:12:33.837Z,96711.77
2019-05-17T20:15:16.594Z,96713.78
2019-05-17T20:17:42.481Z,96705.84
2019-05-17T20:20:12.480Z,96707.82
2019-05-17T20:22:42.601Z,96713.58
2019-05-17T20:25:12.502Z,96713.77
2019-05-17T20:27:44.324Z,96708.03
2019-05-17T20:30:15.320Z,96708.05
2019-05-17T20:32:46.290Z,96712.00
2019-05-17T20:35:18.007Z,96714.99
2019-05-17T20:37:48.755Z,96716.16
2019-05-17T20:40:20.491Z,96720.14
2019-05-17T20:42:51.912Z,96716.38
2019-05-17T20:45:32.622Z,96720.33
2019-05-17T20:47:53.927Z,96710.44
2019-05-17T20:50:24.334Z,96715.95
2019-05-17T20:52:56.664Z,96721.54
2019-05-17T20:55:27.454Z,96729.84
2019-05-17T20:57:57.038Z,96719.94
2019-05-17T21:00:29.507Z,96725.48
2019-05-17T21:02:58.926Z,96725.05
2019-05-17T21:05:28.278Z,96723.67
2019-05-17T21:07:57.619Z,96719.50
2019-05-17T21:10:27.209Z,96714.94
2019-05-17T21:12:57.855Z,96714.14
2019-05-17T21:15:27.188Z,96719.50
2019-05-17T21:17:57.646Z,96717.09
2019-05-17T21:20:31.499Z,96716.11
2019-05-17T21:23:01.909Z,96725.98
2019-05-17T21:25:33.874Z,96718.28
2019-05-17T21:28:04.338Z,96724.00
2019-05-17T21:30:34.688Z,96722.39
2019-05-17T21:33:05.208Z,96724.17
2019-05-17T21:35:34.990Z,96728.95
2019-05-17T21:38:05.589Z,96723.78
2019-05-17T21:40:37.903Z,96723.77
2019-05-17T21:43:08.286Z,96720.59
2019-05-17T21:45:38.698Z,96728.31
2019-05-17T21:48:10.974Z,96723.17
2019-05-17T21:50:41.381Z,96724.95
2019-05-17T21:53:11.793Z,96732.88
2019-05-17T21:55:41.706Z,96718.60
2019-05-17T21:58:12.075Z,96721.15
2019-05-17T22:01:00.036Z,96718.38
2019-05-17T22:03:30.326Z,96719.58
2019-05-17T22:06:00.733Z,96719.74
2019-05-17T22:08:33.018Z,96722.09
2019-05-17T22:11:02.325Z,96726.45
2019-05-17T22:13:33.934Z,96725.45
2019-05-17T22:16:18.643Z,96728.80
2019-05-17T22:18:36.730Z,96719.69
2019-05-17T22:21:07.240Z,96725.41
2019-05-17T22:23:36.829Z,96728.55
2019-05-17T22:26:06.434Z,96726.59
2019-05-17T22:28:36.794Z,96727.34
2019-05-17T22:31:07.658Z,96722.20
2019-05-17T22:33:38.118Z,96724.20
2019-05-17T22:36:08.629Z,96730.30
2019-05-17T22:38:38.048Z,96720.98
2019-05-17T22:41:07.410Z,96723.52
2019-05-17T22:43:37.769Z,96721.28
2019-05-17T22:46:07.283Z,96709.44
2019-05-17T22:48:37.626Z,96716.70
2019-05-17T22:51:08.953Z,96719.27
2019-05-17T22:53:39.380Z,96715.44
2019-05-17T22:56:08.860Z,96721.34
2019-05-17T22:58:40.734Z,96720.75
2019-05-17T23:01:11.130Z,96720.48
2019-05-17T23:03:41.520Z,96715.30
2019-05-17T23:06:12.030Z,96713.69
2019-05-17T23:08:42.438Z,96716.25
2019-05-17T23:11:11.852Z,96715.83
2019-05-17T23:13:40.330Z,96718.77
2019-05-17T23:16:14.385Z,96712.88
2019-05-17T23:18:46.358Z,96713.81
2019-05-17T23:21:18.005Z,96719.13
2019-05-17T23:23:48.527Z,96723.86
2019-05-17T23:26:19.037Z,96718.33
2019-05-17T23:28:48.434Z,96718.11
2019-05-17T23:31:17.909Z,96717.31
2019-05-17T23:33:48.273Z,96719.47
2019-05-17T23:36:18.735Z,96715.69
2019-05-17T23:38:49.289Z,96722.77
2019-05-17T23:41:21.236Z,96721.35
2019-05-17T23:43:51.982Z,96717.76
2019-05-17T23:46:20.926Z,96714.16
2019-05-17T23:48:52.531Z,96711.59
2019-05-17T23:51:22.988Z,96714.33
2019-05-17T23:53:53.676Z,96719.47
2019-05-17T23:56:24.114Z,96718.67
2019-05-17T23:58:54.584Z,96715.87
